createdAt,value
2022-09-24T00:00:09.270Z,18.70
2022-09-24T00:02:56.951Z,18.70
2022-09-24T00:05:45.799Z,18.70
2022-09-24T00:08:33.840Z,18.70
2022-09-24T00:11:21.730Z,18.60
2022-09-24T00:14:09.700Z,18.60
2022-09-24T00:16:57.068Z,18.60
2022-09-24T00:19:44.459Z,18.60
2022-09-24T00:22:33.778Z,18.60
2022-09-24T00:25:38.855Z,18.60
2022-09-24T00:28:26.145Z,18.60
2022-09-24T00:31:13.592Z,18.60
2022-09-24T00:34:01.617Z,18.60
2022-09-24T00:36:49.141Z,18.50
2022-09-24T00:39:38.576Z,18.50
2022-09-24T00:42:26.129Z,18.50
2022-09-24T00:45:13.452Z,18.50
2022-09-24T00:48:00.953Z,18.50
2022-09-24T00:50:49.714Z,18.50
2022-09-24T00:53:37.725Z,18.50
2022-09-24T00:56:26.696Z,18.50
2022-09-24T00:59:23.906Z,18.50
2022-09-24T01:02:12.797Z,18.50
2022-09-24T01:05:00.562Z,18.50
2022-09-24T01:07:49.016Z,18.50
2022-09-24T01:10:54.173Z,18.50
2022-09-24T01:14:10.915Z,18.40
2022-09-24T01:17:14.125Z,18.40
2022-09-24T01:20:32.510Z,18.40
2022-09-24T01:23:48.919Z,18.40
2022-09-24T01:26:51.253Z,18.40
2022-09-24T01:30:04.029Z,18.40
2022-09-24T01:32:56.505Z,18.30
2022-09-24T01:35:48.231Z,18.30
2022-09-24T01:38:41.705Z,18.30
2022-09-24T01:41:29.450Z,18.30
2022-09-24T01:44:18.562Z,18.30
2022-09-24T01:47:09.443Z,18.20
2022-09-24T01:49:57.002Z,18.20
2022-09-24T01:52:50.315Z,18.20
2022-09-24T01:55:45.149Z,18.20
2022-09-24T01:58:41.642Z,18.20
2022-09-24T02:01:33.782Z,18.10
2022-09-24T02:04:23.732Z,18.10
2022-09-24T02:07:16.483Z,18.10
2022-09-24T02:10:03.916Z,18.10
2022-09-24T02:12:57.651Z,18.10
2022-09-24T02:15:51.101Z,18.10
2022-09-24T02:18:42.202Z,18.00
2022-09-24T02:21:33.913Z,18.00
2022-09-24T02:24:26.245Z,18.00
2022-09-24T02:27:14.074Z,18.00
2022-09-24T02:30:01.927Z,17.90
2022-09-24T02:32:52.065Z,17.90
2022-09-24T02:35:40.833Z,17.90
2022-09-24T02:38:29.698Z,17.90
2022-09-24T02:41:17.019Z,17.90
2022-09-24T02:44:05.102Z,17.90
2022-09-24T02:46:52.467Z,17.80
2022-09-24T02:49:39.756Z,17.80
2022-09-24T02:52:27.386Z,17.80
2022-09-24T02:55:16.600Z,17.70
2022-09-24T02:58:04.144Z,17.70
2022-09-24T03:00:51.317Z,17.70
2022-09-24T03:03:38.562Z,17.70
2022-09-24T03:06:26.500Z,17.60
2022-09-24T03:09:14.289Z,17.60
2022-09-24T03:12:03.571Z,17.60
2022-09-24T03:14:50.715Z,17.50
2022-09-24T03:17:37.934Z,17.50
2022-09-24T03:20:25.324Z,17.50
2022-09-24T03:23:12.536Z,17.50
2022-09-24T03:25:59.967Z,17.40
2022-09-24T03:28:48.690Z,17.40
2022-09-24T03:31:35.308Z,17.40
2022-09-24T03:34:22.495Z,17.40
2022-09-24T03:37:09.860Z,17.40
2022-09-24T03:39:57.215Z,17.40
2022-09-24T03:42:44.316Z,17.40
2022-09-24T03:45:33.017Z,17.30
2022-09-24T03:48:22.471Z,17.30
2022-09-24T03:51:12.407Z,17.30
2022-09-24T03:53:59.745Z,17.30
2022-09-24T03:56:46.866Z,17.20
2022-09-24T03:59:34.075Z,17.20
2022-09-24T04:02:22.828Z,17.20
2022-09-24T04:05:10.843Z,17.20
2022-09-24T04:07:58.770Z,17.10
2022-09-24T04:10:47.631Z,17.10
2022-09-24T04:13:35.717Z,17.10
2022-09-24T04:16:24.321Z,17.10
2022-09-24T04:19:14.410Z,17.00
2022-09-24T04:22:01.915Z,17.00
2022-09-24T04:24:49.207Z,17.00
2022-09-24T04:27:36.743Z,16.90
2022-09-24T04:30:25.583Z,16.90
2022-09-24T04:33:12.903Z,16.90
2022-09-24T04:36:01.380Z,16.80
2022-09-24T04:38:48.965Z,16.80
2022-09-24T04:41:36.111Z,16.80
2022-09-24T04:44:23.676Z,16.80
2022-09-24T04:47:11.545Z,16.80
2022-09-24T04:49:59.127Z,16.70
2022-09-24T04:52:48.165Z,16.70
2022-09-24T04:55:37.108Z,16.70
2022-09-24T04:58:24.583Z,16.70
2022-09-24T05:01:13.402Z,16.70
2022-09-24T05:04:01.100Z,16.70
2022-09-24T05:06:48.592Z,16.60
2022-09-24T05:09:37.370Z,16.70
2022-09-24T05:12:25.078Z,16.60
2022-09-24T05:15:12.640Z,16.60
2022-09-24T05:17:59.996Z,16.60
2022-09-24T05:20:47.265Z,16.60
2022-09-24T05:23:35.205Z,16.60
2022-09-24T05:26:42.441Z,16.50
2022-09-24T05:29:29.842Z,16.50
2022-09-24T05:32:20.683Z,16.50
2022-09-24T05:35:09.465Z,16.50
2022-09-24T05:37:56.987Z,16.40
2022-09-24T05:40:50.560Z,16.40
2022-09-24T05:43:39.446Z,16.40
2022-09-24T05:46:27.073Z,16.40
2022-09-24T05:49:14.478Z,16.40
2022-09-24T05:52:02.179Z,16.40
2022-09-24T05:54:49.650Z,16.30
2022-09-24T05:57:37.301Z,16.30
2022-09-24T06:00:26.126Z,16.30
2022-09-24T06:03:15.948Z,16.30
2022-09-24T06:05:47.271Z,16.30
2022-09-24T06:08:17.522Z,16.30
2022-09-24T06:10:48.099Z,16.30
2022-09-24T06:13:20.950Z,16.30
2022-09-24T06:15:51.348Z,16.30
2022-09-24T06:18:20.343Z,16.30
2022-09-24T06:20:49.287Z,16.30
2022-09-24T06:23:18.249Z,16.40
2022-09-24T06:25:51.762Z,16.40
2022-09-24T06:28:20.868Z,16.40
2022-09-24T06:30:51.268Z,16.40
2022-09-24T06:33:20.947Z,16.40
2022-09-24T06:35:50.182Z,16.40
2022-09-24T06:38:20.677Z,16.40
2022-09-24T06:40:49.709Z,16.50
2022-09-24T06:43:19.227Z,16.50
2022-09-24T06:45:48.483Z,16.50
2022-09-24T06:48:18.832Z,16.50
2022-09-24T06:50:48.018Z,16.50
2022-09-24T06:53:17.622Z,16.60
2022-09-24T06:55:47.222Z,16.60
2022-09-24T06:58:20.051Z,16.60
2022-09-24T07:00:58.350Z,16.60
2022-09-24T07:03:30.797Z,16.60
2022-09-24T07:06:04.302Z,16.70
2022-09-24T07:08:34.223Z,16.70
2022-09-24T07:11:03.290Z,16.80
2022-09-24T07:13:33.453Z,16.80
2022-09-24T07:16:03.042Z,16.90
2022-09-24T07:18:33.466Z,16.90
2022-09-24T07:21:02.433Z,17.00
2022-09-24T07:23:31.459Z,17.00
2022-09-24T07:26:01.393Z,17.10
2022-09-24T07:28:30.503Z,17.10
2022-09-24T07:31:01.152Z,17.10
2022-09-24T07:33:33.825Z,17.20
2022-09-24T07:36:07.155Z,17.20
2022-09-24T07:38:36.517Z,17.20
2022-09-24T07:41:31.145Z,17.30
2022-09-24T07:44:00.563Z,17.30
2022-09-24T07:46:30.045Z,17.30
2022-09-24T07:49:00.989Z,17.40
2022-09-24T07:51:36.457Z,17.40
2022-09-24T07:54:05.999Z,17.50
2022-09-24T07:56:44.733Z,17.50
2022-09-24T07:59:20.888Z,17.60
2022-09-24T08:01:50.281Z,17.60
2022-09-24T08:04:21.183Z,17.70
2022-09-24T08:06:51.474Z,17.70
2022-09-24T08:09:22.573Z,17.80
2022-09-24T08:11:53.519Z,17.80
2022-09-24T08:14:38.961Z,17.90
2022-09-24T08:17:08.717Z,17.90
2022-09-24T08:20:06.561Z,18.00
2022-09-24T08:22:36.351Z,18.00
2022-09-24T08:25:06.938Z,18.10
2022-09-24T08:27:37.786Z,18.20
2022-09-24T08:30:14.270Z,18.20
2022-09-24T08:32:48.904Z,18.20
2022-09-24T08:35:19.565Z,18.30
2022-09-24T08:37:53.184Z,18.30
2022-09-24T08:40:27.932Z,18.40
2022-09-24T08:43:10.730Z,18.50
2022-09-24T08:46:04.526Z,18.50
2022-09-24T08:48:38.589Z,18.60
2022-09-24T08:51:19.022Z,18.60
2022-09-24T08:53:56.586Z,18.70
2022-09-24T08:56:45.209Z,18.80
2022-09-24T08:59:30.631Z,18.90
2022-09-24T09:02:20.851Z,19.00
2022-09-24T09:05:07.567Z,19.00
2022-09-24T09:07:46.509Z,19.10
2022-09-24T09:10:26.421Z,19.20
2022-09-24T09:13:01.438Z,19.30
2022-09-24T09:15:34.452Z,19.40
2022-09-24T09:18:13.993Z,19.40
2022-09-24T09:20:45.281Z,19.50
2022-09-24T09:23:20.584Z,19.60
2022-09-24T09:25:55.659Z,19.70
2022-09-24T09:28:27.465Z,19.70
2022-09-24T09:31:08.247Z,19.80
2022-09-24T09:33:56.967Z,19.80
2022-09-24T09:36:47.953Z,19.90
2022-09-24T09:39:37.396Z,19.90
2022-09-24T09:42:23.126Z,20.00
2022-09-24T09:44:52.717Z,20.00
2022-09-24T09:47:36.327Z,20.10
2022-09-24T09:50:12.371Z,20.10
2022-09-24T09:52:41.681Z,20.10
2022-09-24T09:55:23.474Z,20.20
2022-09-24T09:57:53.873Z,20.30
2022-09-24T10:00:29.740Z,20.30
2022-09-24T10:02:59.264Z,20.40
2022-09-24T10:05:32.441Z,20.50
2022-09-24T10:08:02.764Z,20.60
2022-09-24T10:10:33.406Z,20.60
2022-09-24T10:13:13.382Z,20.70
2022-09-24T10:15:52.170Z,20.80
2022-09-24T10:18:32.906Z,20.80
2022-09-24T10:21:08.061Z,20.90
2022-09-24T10:23:41.041Z,21.00
2022-09-24T10:26:12.518Z,21.00
2022-09-24T10:29:06.842Z,21.10
2022-09-24T10:31:45.905Z,21.10
2022-09-24T10:34:27.569Z,21.20
2022-09-24T10:37:10.827Z,21.20
2022-09-24T10:39:41.461Z,21.30
2022-09-24T10:42:29.424Z,21.30
2022-09-24T10:45:07.104Z,21.30
2022-09-24T10:47:44.700Z,21.30
2022-09-24T10:50:35.729Z,21.40
2022-09-24T10:53:16.284Z,21.40
2022-09-24T10:56:00.845Z,21.40
2022-09-24T10:59:00.755Z,21.50
2022-09-24T11:01:43.439Z,21.50
2022-09-24T11:04:49.480Z,21.50
2022-09-24T11:08:03.530Z,21.60
2022-09-24T11:11:19.596Z,21.60
2022-09-24T11:14:11.605Z,21.60
2022-09-24T11:17:09.356Z,21.60
2022-09-24T11:20:06.749Z,21.70
2022-09-24T11:23:05.151Z,21.70
2022-09-24T11:25:55.997Z,21.70
2022-09-24T11:28:46.682Z,21.80
2022-09-24T11:31:35.447Z,21.80
2022-09-24T11:34:37.260Z,21.80
2022-09-24T11:37:23.639Z,21.80
2022-09-24T11:40:21.787Z,21.90
2022-09-24T11:43:16.402Z,21.90
2022-09-24T11:46:04.266Z,21.90
2022-09-24T11:49:09.466Z,21.90
2022-09-24T11:51:54.340Z,22.00
2022-09-24T11:54:36.004Z,22.00
2022-09-24T11:57:16.419Z,22.00
2022-09-24T12:00:06.292Z,22.10
2022-09-24T12:02:44.580Z,22.10
2022-09-24T12:05:33.687Z,22.10
2022-09-24T12:08:15.302Z,22.10
2022-09-24T12:10:54.513Z,22.10
2022-09-24T12:13:43.061Z,22.10
2022-09-24T12:16:23.258Z,22.10
2022-09-24T12:19:17.402Z,22.20
2022-09-24T12:21:58.420Z,22.20
2022-09-24T12:24:58.692Z,22.20
2022-09-24T12:27:36.344Z,22.20
2022-09-24T12:30:46.463Z,22.20
2022-09-24T12:33:33.371Z,22.20
2022-09-24T12:36:22.833Z,22.20
2022-09-24T12:39:13.863Z,22.10
2022-09-24T12:42:13.858Z,22.10
2022-09-24T12:44:56.010Z,22.20
2022-09-24T12:47:40.636Z,22.20
2022-09-24T12:50:31.796Z,22.20
2022-09-24T12:53:27.836Z,22.20
2022-09-24T12:56:32.904Z,22.20
2022-09-24T12:59:24.420Z,22.20
2022-09-24T13:02:34.096Z,22.20
2022-09-24T13:05:54.874Z,22.30
2022-09-24T13:08:46.207Z,22.30
2022-09-24T13:11:37.655Z,22.30
2022-09-24T13:14:27.923Z,22.30
2022-09-24T13:18:28.339Z,22.30
2022-09-24T13:21:09.231Z,22.30
2022-09-24T13:23:53.584Z,22.40
2022-09-24T13:26:38.326Z,22.40
2022-09-24T13:29:37.021Z,22.40
2022-09-24T13:32:15.246Z,22.40
2022-09-24T13:34:49.212Z,22.40
2022-09-24T13:37:46.194Z,22.40
2022-09-24T13:40:44.307Z,22.40
2022-09-24T13:43:29.924Z,22.40
2022-09-24T13:46:00.527Z,22.40
2022-09-24T13:48:36.645Z,22.40
2022-09-24T13:51:11.057Z,22.50
2022-09-24T13:53:45.201Z,22.50
2022-09-24T13:56:16.841Z,22.40
2022-09-24T13:58:51.266Z,22.40
2022-09-24T14:01:24.552Z,22.40
2022-09-24T14:03:56.019Z,22.40
2022-09-24T14:06:35.116Z,22.40
2022-09-24T14:09:05.921Z,22.50
2022-09-24T14:11:36.775Z,22.50
2022-09-24T14:14:18.313Z,22.50
2022-09-24T14:16:47.287Z,22.50
2022-09-24T14:19:17.486Z,22.50
2022-09-24T14:21:50.987Z,22.50
2022-09-24T14:24:24.506Z,22.50
2022-09-24T14:26:56.933Z,22.40
2022-09-24T14:29:33.336Z,22.40
2022-09-24T14:32:04.852Z,22.50
2022-09-24T14:34:37.046Z,22.40
2022-09-24T14:37:12.858Z,22.50
2022-09-24T14:39:44.756Z,22.50
2022-09-24T14:42:23.668Z,22.50
2022-09-24T14:44:55.285Z,22.50
2022-09-24T14:47:28.519Z,22.40
2022-09-24T14:49:58.193Z,22.50
2022-09-24T14:52:31.869Z,22.50
2022-09-24T14:55:17.421Z,22.50
2022-09-24T14:57:49.616Z,22.50
2022-09-24T15:00:28.086Z,22.50
2022-09-24T15:03:02.265Z,22.50
2022-09-24T15:05:31.832Z,22.50
2022-09-24T15:08:28.496Z,22.50
2022-09-24T15:11:00.283Z,22.50
2022-09-24T15:13:35.181Z,22.50
2022-09-24T15:16:16.412Z,22.50
2022-09-24T15:18:45.486Z,22.60
2022-09-24T15:21:14.439Z,22.60
2022-09-24T15:23:43.417Z,22.60
2022-09-24T15:26:12.485Z,22.50
2022-09-24T15:28:41.436Z,22.60
2022-09-24T15:31:11.938Z,22.60
2022-09-24T15:33:40.914Z,22.60
2022-09-24T15:36:12.374Z,22.60
2022-09-24T15:38:41.356Z,22.50
2022-09-24T15:41:10.466Z,22.50
2022-09-24T15:43:39.526Z,22.50
2022-09-24T15:46:08.690Z,22.50
2022-09-24T15:48:39.066Z,22.50
2022-09-24T15:51:13.772Z,22.50
2022-09-24T15:53:44.642Z,22.50
2022-09-24T15:56:13.911Z,22.50
2022-09-24T15:58:42.884Z,22.50
2022-09-24T16:01:18.227Z,22.50
2022-09-24T16:03:48.668Z,22.50
2022-09-24T16:06:17.653Z,22.50
2022-09-24T16:08:46.824Z,22.50
2022-09-24T16:11:16.549Z,22.50
2022-09-24T16:13:45.542Z,22.50
2022-09-24T16:16:14.651Z,22.50
2022-09-24T16:18:43.695Z,22.50
2022-09-24T16:21:14.056Z,22.50
2022-09-24T16:23:43.076Z,22.50
2022-09-24T16:26:12.057Z,22.50
2022-09-24T16:28:40.986Z,22.50
2022-09-24T16:31:10.067Z,22.40
2022-09-24T16:33:40.066Z,22.40
2022-09-24T16:36:10.059Z,22.40
2022-09-24T16:38:41.225Z,22.40
2022-09-24T16:41:10.643Z,22.40
2022-09-24T16:43:39.661Z,22.40
2022-09-24T16:46:11.967Z,22.40
2022-09-24T16:48:44.383Z,22.40
2022-09-24T16:51:13.370Z,22.40
2022-09-24T16:53:48.331Z,22.40
2022-09-24T16:56:19.152Z,22.30
2022-09-24T16:58:48.377Z,22.30
2022-09-24T17:01:19.611Z,22.30
2022-09-24T17:03:52.326Z,22.30
2022-09-24T17:06:23.783Z,22.30
2022-09-24T17:09:12.050Z,22.20
2022-09-24T17:11:41.999Z,22.20
2022-09-24T17:14:12.601Z,22.20
2022-09-24T17:17:00.070Z,22.20
2022-09-24T17:19:47.234Z,22.20
2022-09-24T17:22:34.572Z,22.20
2022-09-24T17:25:23.103Z,22.10
2022-09-24T17:28:12.150Z,22.20
2022-09-24T17:30:59.756Z,22.10
2022-09-24T17:33:47.927Z,22.10
2022-09-24T17:36:37.022Z,22.10
2022-09-24T17:39:24.849Z,22.00
2022-09-24T17:42:13.582Z,22.00
2022-09-24T17:45:01.221Z,22.00
2022-09-24T17:47:57.551Z,22.00
2022-09-24T17:50:45.102Z,22.00
2022-09-24T17:53:34.666Z,21.90
2022-09-24T17:56:24.765Z,21.90
2022-09-24T17:59:15.748Z,21.90
2022-09-24T18:02:06.739Z,21.80
2022-09-24T18:04:54.220Z,21.90
2022-09-24T18:07:41.680Z,21.80
2022-09-24T18:10:29.032Z,21.80
2022-09-24T18:13:17.133Z,21.70
2022-09-24T18:16:08.286Z,21.80
2022-09-24T18:18:56.327Z,21.70
2022-09-24T18:21:44.315Z,21.70
2022-09-24T18:24:31.623Z,21.70
2022-09-24T18:27:18.830Z,21.60
2022-09-24T18:30:11.628Z,21.60
2022-09-24T18:33:00.657Z,21.50
2022-09-24T18:35:47.974Z,21.50
2022-09-24T18:38:35.790Z,21.50
2022-09-24T18:41:25.134Z,21.40
2022-09-24T18:44:12.891Z,21.40
2022-09-24T18:47:00.489Z,21.40
2022-09-24T18:49:49.264Z,21.40
2022-09-24T18:52:36.661Z,21.40
2022-09-24T18:55:25.346Z,21.30
2022-09-24T18:58:13.064Z,21.30
2022-09-24T19:01:01.989Z,21.30
2022-09-24T19:03:49.786Z,21.30
2022-09-24T19:06:40.886Z,21.30
2022-09-24T19:09:28.538Z,21.20
2022-09-24T19:12:16.085Z,21.20
2022-09-24T19:15:04.164Z,21.20
2022-09-24T19:17:53.128Z,21.10
2022-09-24T19:20:41.566Z,21.10
2022-09-24T19:23:30.369Z,21.10
2022-09-24T19:26:21.067Z,21.10
2022-09-24T19:29:08.445Z,21.00
2022-09-24T19:31:55.557Z,21.00
2022-09-24T19:34:43.236Z,21.00
2022-09-24T19:37:32.468Z,21.00
2022-09-24T19:40:21.531Z,21.00
2022-09-24T19:43:09.098Z,21.00
2022-09-24T19:45:58.895Z,21.00
2022-09-24T19:48:49.149Z,21.00
2022-09-24T19:51:37.882Z,20.90
2022-09-24T19:54:25.396Z,20.90
2022-09-24T19:57:14.188Z,20.90
2022-09-24T20:00:02.680Z,20.90
2022-09-24T20:02:52.437Z,20.90
2022-09-24T20:05:43.287Z,20.90
2022-09-24T20:08:30.802Z,20.90
2022-09-24T20:11:21.642Z,20.80
2022-09-24T20:14:11.422Z,20.80
2022-09-24T20:16:58.943Z,20.80
2022-09-24T20:19:46.120Z,20.80
2022-09-24T20:22:34.339Z,20.80
2022-09-24T20:25:42.181Z,20.80
2022-09-24T20:28:33.195Z,20.70
2022-09-24T20:31:22.652Z,20.70
2022-09-24T20:34:10.291Z,20.70
2022-09-24T20:36:59.735Z,20.70
2022-09-24T20:39:47.090Z,20.60
2022-09-24T20:42:34.352Z,20.60
2022-09-24T20:45:21.519Z,20.60
2022-09-24T20:48:10.201Z,20.50
2022-09-24T20:50:57.679Z,20.50
2022-09-24T20:53:45.366Z,20.50
2022-09-24T20:56:32.503Z,20.50
2022-09-24T20:59:20.179Z,20.50
2022-09-24T21:02:08.404Z,20.40
2022-09-24T21:04:57.423Z,20.40
2022-09-24T21:07:44.820Z,20.40
2022-09-24T21:10:32.381Z,20.40
2022-09-24T21:13:21.053Z,20.40
2022-09-24T21:16:09.543Z,20.40
2022-09-24T21:18:57.173Z,20.40
2022-09-24T21:21:46.951Z,20.40
2022-09-24T21:24:34.606Z,20.30
2022-09-24T21:27:22.350Z,20.30
2022-09-24T21:30:10.727Z,20.30
2022-09-24T21:32:57.982Z,20.30
2022-09-24T21:35:45.620Z,20.30
2022-09-24T21:38:34.888Z,20.30
2022-09-24T21:41:23.140Z,20.30
2022-09-24T21:44:14.221Z,20.30
2022-09-24T21:47:01.948Z,20.30
2022-09-24T21:49:49.558Z,20.30
2022-09-24T21:52:39.426Z,20.20
2022-09-24T21:55:30.155Z,20.20
2022-09-24T21:58:17.466Z,20.20
2022-09-24T22:01:14.676Z,20.20
2022-09-24T22:04:07.393Z,20.20
2022-09-24T22:06:55.006Z,20.20
2022-09-24T22:09:42.385Z,20.20
2022-09-24T22:12:31.991Z,20.20
2022-09-24T22:15:21.394Z,20.20
2022-09-24T22:18:09.059Z,20.20
2022-09-24T22:20:57.838Z,20.20
2022-09-24T22:23:45.206Z,20.20
2022-09-24T22:26:33.120Z,20.20
2022-09-24T22:29:21.970Z,20.20
2022-09-24T22:32:09.580Z,20.20
2022-09-24T22:35:14.635Z,20.20
2022-09-24T22:38:02.338Z,20.20
2022-09-24T22:40:51.087Z,20.20
2022-09-24T22:43:38.805Z,20.10
2022-09-24T22:46:28.050Z,20.10
2022-09-24T22:49:16.057Z,20.10
2022-09-24T22:52:03.857Z,20.10
2022-09-24T22:54:51.059Z,20.10
2022-09-24T22:57:38.147Z,20.10
2022-09-24T23:00:25.439Z,20.10
2022-09-24T23:03:14.081Z,20.10
2022-09-24T23:06:01.578Z,20.10
2022-09-24T23:08:49.534Z,20.10
2022-09-24T23:11:37.454Z,20.10
2022-09-24T23:14:25.397Z,20.10
2022-09-24T23:17:12.888Z,20.00
2022-09-24T23:20:01.580Z,20.00
2022-09-24T23:22:49.238Z,20.00
2022-09-24T23:25:36.633Z,20.00
2022-09-24T23:28:23.970Z,20.00
2022-09-24T23:31:15.242Z,20.00
2022-09-24T23:34:03.729Z,20.00
2022-09-24T23:36:52.774Z,20.00
2022-09-24T23:39:40.689Z,20.00
2022-09-24T23:42:27.986Z,20.00
2022-09-24T23:45:15.670Z,19.90
2022-09-24T23:48:03.511Z,19.90
2022-09-24T23:50:51.211Z,19.90
2022-09-24T23:53:41.401Z,19.90
2022-09-24T23:56:29.041Z,19.90
2022-09-24T23:59:16.852Z,19.90
